createdAt,value
2022-08-11T00:00:45.952Z,2.00
2022-08-11T00:05:39.744Z,2.20
2022-08-11T00:10:40.551Z,2.10
2022-08-11T00:15:48.667Z,2.10
2022-08-11T00:20:41.905Z,2.20
2022-08-11T00:25:51.883Z,2.10
2022-08-11T00:30:43.141Z,1.90
2022-08-11T00:35:54.227Z,2.00
2022-08-11T00:46:34.587Z,2.10
2022-08-11T00:52:04.663Z,1.90
2022-08-11T00:56:38.208Z,1.90
2022-08-11T01:01:36.434Z,2.20
2022-08-11T01:06:37.172Z,2.00
2022-08-11T01:11:37.786Z,1.90
2022-08-11T01:16:38.535Z,2.20
2022-08-11T01:21:39.229Z,2.10
2022-08-11T01:26:39.946Z,1.90
2022-08-11T01:31:40.673Z,2.30
2022-08-11T01:36:41.586Z,2.20
2022-08-11T01:41:42.458Z,2.10
2022-08-11T01:46:44.459Z,2.30
2022-08-11T01:51:45.367Z,2.10
2022-08-11T01:56:44.877Z,2.30
2022-08-11T02:01:45.255Z,2.10
2022-08-11T02:06:46.227Z,2.30
2022-08-11T02:11:46.713Z,2.40
2022-08-11T02:16:47.529Z,2.70
2022-08-11T02:21:47.839Z,2.70
2022-08-11T02:26:48.646Z,2.60
2022-08-11T02:32:25.881Z,2.40
2022-08-11T02:36:50.937Z,2.50
2022-08-11T02:41:50.752Z,2.50
2022-08-11T02:46:51.526Z,2.10
2022-08-11T02:51:52.220Z,2.60
2022-08-11T02:56:53.115Z,2.70
2022-08-11T03:01:54.337Z,2.40
2022-08-11T03:06:55.359Z,2.90
2022-08-11T03:11:56.560Z,3.20
2022-08-11T03:16:55.819Z,2.90
2022-08-11T03:22:02.906Z,3.10
2022-08-11T03:26:58.035Z,3.40
2022-08-11T03:31:57.728Z,3.60
2022-08-11T03:37:16.326Z,3.20
2022-08-11T03:42:03.692Z,3.30
2022-08-11T03:47:00.802Z,3.40
2022-08-11T03:52:00.479Z,3.20
2022-08-11T03:57:01.153Z,3.40
2022-08-11T04:02:02.018Z,3.30
2022-08-11T04:07:02.735Z,3.80
2022-08-11T04:12:03.425Z,3.80
2022-08-11T04:17:04.132Z,3.70
2022-08-11T04:22:04.969Z,3.90
2022-08-11T04:27:07.400Z,3.80
2022-08-11T04:32:06.610Z,3.90
2022-08-11T04:37:07.310Z,4.00
2022-08-11T04:42:07.962Z,3.90
2022-08-11T04:47:08.625Z,3.80
2022-08-11T04:52:09.305Z,4.20
2022-08-11T04:57:10.026Z,4.30
2022-08-11T05:02:16.956Z,4.10
2022-08-11T05:07:12.231Z,4.90
2022-08-11T05:12:12.623Z,4.30
2022-08-11T05:17:12.760Z,4.40
2022-08-11T05:22:13.484Z,4.40
2022-08-11T05:27:14.215Z,4.30
2022-08-11T05:32:21.869Z,4.70
2022-08-11T05:37:26.825Z,4.10
2022-08-11T05:42:20.958Z,4.50
2022-08-11T05:47:17.775Z,4.60
2022-08-11T05:52:17.646Z,4.60
2022-08-11T05:57:49.904Z,4.60
2022-08-11T06:02:19.449Z,4.90
2022-08-11T06:07:19.203Z,5.00
2022-08-11T06:12:20.003Z,5.00
2022-08-11T06:17:20.624Z,5.20
2022-08-11T06:22:21.494Z,5.20
2022-08-11T06:27:22.208Z,5.10
2022-08-11T06:32:22.834Z,4.90
2022-08-11T06:37:23.514Z,6.10
2022-08-11T06:42:24.227Z,4.30
2022-08-11T06:47:24.929Z,4.30
2022-08-11T06:52:45.230Z,5.00
2022-08-11T06:57:31.030Z,4.10
2022-08-11T07:02:30.980Z,4.10
2022-08-11T07:07:27.432Z,4.30
2022-08-11T07:12:28.173Z,4.30
2022-08-11T07:17:28.860Z,4.40
2022-08-11T07:22:29.525Z,3.50
2022-08-11T07:27:34.988Z,3.70
2022-08-11T07:32:31.731Z,3.80
2022-08-11T07:37:31.484Z,4.10
2022-08-11T07:42:32.179Z,3.70
2022-08-11T07:47:32.820Z,3.80
2022-08-11T07:52:33.676Z,3.50
2022-08-11T07:58:13.873Z,3.90
2022-08-11T08:02:35.751Z,3.60
2022-08-11T08:07:35.437Z,3.50
2022-08-11T08:12:36.298Z,3.40
2022-08-11T08:17:37.071Z,3.70
2022-08-11T08:22:39.468Z,3.00
2022-08-11T08:27:38.220Z,3.30
2022-08-11T08:32:39.185Z,2.90
2022-08-11T08:37:45.407Z,3.10
2022-08-11T08:42:45.107Z,3.20
2022-08-11T08:47:43.106Z,2.70
2022-08-11T08:52:43.901Z,2.90
2022-08-11T08:57:42.967Z,2.80
2022-08-11T09:02:43.850Z,2.80
2022-08-11T09:07:44.722Z,3.00
2022-08-11T09:12:45.065Z,2.80
2022-08-11T09:17:45.706Z,3.00
2022-08-11T09:22:46.393Z,3.00
2022-08-11T09:27:50.337Z,3.20
2022-08-11T09:32:47.925Z,2.70
2022-08-11T09:37:54.013Z,2.60
2022-08-11T09:42:50.169Z,2.50
2022-08-11T09:47:49.871Z,2.70
2022-08-11T09:53:16.951Z,2.50
2022-08-11T09:57:52.175Z,2.40
2022-08-11T10:02:53.251Z,2.70
2022-08-11T10:07:52.579Z,2.60
2022-08-11T10:12:53.340Z,2.40
2022-08-11T10:17:55.306Z,2.30
2022-08-11T10:22:54.547Z,2.20
2022-08-11T10:28:32.715Z,2.60
2022-08-11T10:32:58.395Z,2.50
2022-08-11T10:38:08.690Z,2.70
2022-08-11T10:42:58.338Z,3.00
2022-08-11T10:47:57.503Z,2.80
2022-08-11T10:52:58.285Z,2.50
2022-08-11T10:58:04.713Z,2.60
2022-08-11T11:03:22.383Z,2.40
2022-08-11T11:08:00.859Z,2.70
2022-08-11T11:13:00.530Z,2.80
2022-08-11T11:18:01.194Z,2.60
2022-08-11T11:23:01.891Z,2.40
2022-08-11T11:28:02.846Z,2.50
2022-08-11T11:33:03.010Z,2.50
2022-08-11T11:38:14.001Z,2.20
2022-08-11T11:43:04.361Z,2.50
2022-08-11T11:48:05.040Z,2.30
2022-08-11T11:53:05.702Z,2.10
2022-08-11T11:58:06.367Z,2.20
2022-08-11T12:03:07.090Z,2.00
2022-08-11T12:08:12.845Z,2.30
2022-08-11T12:13:09.262Z,2.40
2022-08-11T12:18:08.920Z,3.10
2022-08-11T12:23:09.587Z,2.40
2022-08-11T12:28:11.121Z,2.00
2022-08-11T12:33:10.778Z,2.20
2022-08-11T12:38:12.740Z,2.30
2022-08-11T12:43:21.870Z,2.30
2022-08-11T12:48:59.828Z,2.20
2022-08-11T12:53:14.577Z,2.30
2022-08-11T12:58:13.681Z,2.10
2022-08-11T13:03:15.366Z,2.40
2022-08-11T13:08:15.402Z,2.20
2022-08-11T13:13:52.706Z,2.00
2022-08-11T13:18:17.264Z,2.00
2022-08-11T13:23:16.979Z,2.00
2022-08-11T13:28:17.647Z,1.90
2022-08-11T13:33:18.640Z,2.20
2022-08-11T13:38:34.629Z,2.10
2022-08-11T13:43:20.184Z,1.90
2022-08-11T13:48:22.871Z,1.60
2022-08-11T13:53:20.549Z,1.70
2022-08-11T13:58:39.930Z,2.20
2022-08-11T14:03:22.845Z,1.80
2022-08-11T14:08:33.428Z,2.10
2022-08-11T14:13:24.059Z,2.00
2022-08-11T14:18:23.752Z,1.70
2022-08-11T14:23:24.442Z,1.80
2022-08-11T14:28:32.257Z,1.70
2022-08-11T14:33:26.620Z,1.60
2022-08-11T14:38:27.158Z,1.30
2022-08-11T14:44:05.838Z,1.40
2022-08-11T14:48:28.575Z,1.40
2022-08-11T14:53:28.435Z,1.40
2022-08-11T14:58:29.260Z,1.40
2022-08-11T15:03:30.069Z,1.20
2022-08-11T15:08:30.773Z,1.90
2022-08-11T15:13:31.420Z,1.50
2022-08-11T15:18:32.386Z,1.20
2022-08-11T15:23:32.563Z,1.40
2022-08-11T15:28:33.455Z,2.20
2022-08-11T15:33:34.182Z,1.60
2022-08-11T15:38:35.060Z,1.30
2022-08-11T15:43:36.016Z,1.60
2022-08-11T15:48:36.832Z,1.30
2022-08-11T15:53:37.507Z,1.50
2022-08-11T15:58:38.169Z,1.70
2022-08-11T16:04:06.666Z,1.50
2022-08-11T16:08:40.529Z,1.30
2022-08-11T16:13:40.104Z,1.20
2022-08-11T16:18:40.940Z,1.50
2022-08-11T16:23:41.612Z,1.80
2022-08-11T16:28:42.283Z,1.40
2022-08-11T16:33:49.709Z,1.30
2022-08-11T16:38:44.608Z,1.70
2022-08-11T16:43:44.302Z,1.90
2022-08-11T16:48:45.332Z,2.80
2022-08-11T16:54:03.511Z,2.20
2022-08-11T16:58:47.241Z,2.80
2022-08-11T17:03:46.944Z,2.00
2022-08-11T17:08:49.877Z,2.10
2022-08-11T17:13:49.308Z,2.20
2022-08-11T17:18:49.001Z,1.60
2022-08-11T17:23:50.823Z,1.40
2022-08-11T17:28:50.611Z,1.50
2022-08-11T17:33:51.282Z,1.80
2022-08-11T17:38:58.912Z,1.60
2022-08-11T17:43:52.749Z,1.90
2022-08-11T17:48:56.870Z,1.60
2022-08-11T17:54:02.049Z,1.70
2022-08-11T17:58:55.701Z,1.70
2022-08-11T18:03:58.103Z,1.70
2022-08-11T18:08:56.446Z,1.80
2022-08-11T18:13:59.261Z,1.80
2022-08-11T18:18:58.061Z,1.70
2022-08-11T18:23:58.866Z,1.80
2022-08-11T18:28:59.484Z,1.70
2022-08-11T18:34:08.332Z,1.80
2022-08-11T18:39:02.454Z,1.90
2022-08-11T18:44:02.726Z,2.10
2022-08-11T18:49:02.588Z,2.20
2022-08-11T18:54:03.663Z,8.80
2022-08-11T18:59:05.885Z,4.70
2022-08-11T19:04:11.249Z,4.00
2022-08-11T19:09:06.503Z,3.60
2022-08-11T19:14:07.239Z,3.40
2022-08-11T19:19:07.219Z,3.10
2022-08-11T19:24:07.625Z,2.80
2022-08-11T19:29:08.595Z,3.10
2022-08-11T19:34:10.942Z,4.00
2022-08-11T19:39:10.043Z,3.50
2022-08-11T19:44:13.558Z,3.50
2022-08-11T19:49:11.901Z,3.30
2022-08-11T19:54:11.716Z,3.20
2022-08-11T19:59:12.654Z,4.00
2022-08-11T20:04:14.974Z,3.90
2022-08-11T20:09:14.381Z,3.40
2022-08-11T20:14:15.284Z,3.30
2022-08-11T20:19:15.597Z,3.00
2022-08-11T20:24:16.478Z,2.60
2022-08-11T20:29:17.340Z,3.40
2022-08-11T20:34:18.194Z,4.10
2022-08-11T20:39:19.106Z,6.40
2022-08-11T20:44:19.952Z,4.00
2022-08-11T20:49:20.742Z,2.70
2022-08-11T20:54:42.990Z,2.40
2022-08-11T20:59:23.344Z,2.30
2022-08-11T21:04:23.044Z,2.20
2022-08-11T21:09:58.016Z,2.30
2022-08-11T21:14:25.962Z,2.60
2022-08-11T21:19:59.962Z,2.60
2022-08-11T21:24:26.860Z,3.00
2022-08-11T21:29:26.751Z,2.40
2022-08-11T21:34:27.451Z,2.50
2022-08-11T21:39:28.572Z,2.40
2022-08-11T21:44:29.042Z,2.60
2022-08-11T21:49:30.402Z,2.80
2022-08-11T21:54:31.051Z,2.40
2022-08-11T21:59:31.975Z,2.50
2022-08-11T22:16:16.799Z,2.40
2022-08-11T22:21:56.584Z,2.40
2022-08-11T22:26:20.018Z,2.30
2022-08-11T22:31:19.680Z,2.30
2022-08-11T22:36:19.053Z,2.60
2022-08-11T22:41:20.467Z,2.80
2022-08-11T22:46:22.001Z,2.70
2022-08-11T22:51:22.686Z,3.10
2022-08-11T22:56:21.937Z,2.90
2022-08-11T23:01:23.649Z,2.90
2022-08-11T23:06:23.418Z,2.60
2022-08-11T23:11:24.996Z,2.70
2022-08-11T23:16:25.089Z,2.80
2022-08-11T23:21:25.412Z,6.90
2022-08-11T23:26:26.131Z,3.40
2022-08-11T23:31:26.561Z,3.50
2022-08-11T23:42:17.196Z,3.70
2022-08-11T23:47:17.922Z,3.30
2022-08-11T23:52:18.944Z,3.60
2022-08-11T23:57:19.241Z,3.80
